sensor_id;sensor_type;location;lat;lon;timestamp;P1;durP1;ratioP1;P2;durP2;ratioP2
18042;SDS011;9146;48.074;11.968;2023-03-01T00:00:04;17.30;;;12.70;;
18042;SDS011;9146;48.074;11.968;2023-03-01T00:02:33;22.70;;;12.97;;
18042;SDS011;9146;48.074;11.968;2023-03-01T00:05:01;16.27;;;11.83;;
18042;SDS011;9146;48.074;11.968;2023-03-01T00:07:28;17.27;;;11.13;;
18042;SDS011;9146;48.074;11.968;2023-03-01T00:09:55;16.87;;;12.17;;
18042;SDS011;9146;48.074;11.968;2023-03-01T00:12:22;16.13;;;12.10;;
18042;SDS011;9146;48.074;11.968;2023-03-01T00:14:49;17.23;;;11.70;;
18042;SDS011;9146;48.074;11.968;2023-03-01T00:17:16;23.63;;;13.93;;
18042;SDS011;9146;48.074;11.968;2023-03-01T00:19:43;16.90;;;12.70;;
18042;SDS011;9146;48.074;11.968;2023-03-01T00:22:12;14.87;;;11.57;;
18042;SDS011;9146;48.074;11.968;2023-03-01T00:24:38;21.87;;;13.50;;
18042;SDS011;9146;48.074;11.968;2023-03-01T00:27:05;16.77;;;12.83;;
18042;SDS011;9146;48.074;11.968;2023-03-01T00:29:32;17.07;;;12.90;;
18042;SDS011;9146;48.074;11.968;2023-03-01T00:31:59;18.13;;;12.00;;
18042;SDS011;9146;48.074;11.968;2023-03-01T00:34:26;17.23;;;12.10;;
18042;SDS011;9146;48.074;11.968;2023-03-01T00:36:53;21.77;;;13.30;;
18042;SDS011;9146;48.074;11.968;2023-03-01T00:39:22;18.33;;;12.87;;
18042;SDS011;9146;48.074;11.968;2023-03-01T00:41:49;18.63;;;13.60;;
18042;SDS011;9146;48.074;11.968;2023-03-01T00:44:16;17.00;;;11.97;;
18042;SDS011;9146;48.074;11.968;2023-03-01T00:46:43;19.20;;;13.40;;
18042;SDS011;9146;48.074;11.968;2023-03-01T00:49:10;21.77;;;13.80;;
18042;SDS011;9146;48.074;11.968;2023-03-01T00:51:37;21.77;;;13.40;;
18042;SDS011;9146;48.074;11.968;2023-03-01T00:54:07;18.20;;;13.00;;
18042;SDS011;9146;48.074;11.968;2023-03-01T00:56:37;18.10;;;13.33;;
18042;SDS011;9146;48.074;11.968;2023-03-01T00:59:04;24.17;;;13.63;;
18042;SDS011;9146;48.074;11.968;2023-03-01T01:01:31;17.00;;;12.17;;
18042;SDS011;9146;48.074;11.968;2023-03-01T01:03:58;20.10;;;12.80;;
18042;SDS011;9146;48.074;11.968;2023-03-01T01:06:27;19.33;;;13.30;;
18042;SDS011;9146;48.074;11.968;2023-03-01T01:08:55;19.70;;;13.70;;
18042;SDS011;9146;48.074;11.968;2023-03-01T01:11:24;19.67;;;13.80;;
18042;SDS011;9146;48.074;11.968;2023-03-01T01:13:53;24.83;;;12.50;;
18042;SDS011;9146;48.074;11.968;2023-03-01T01:16:21;20.80;;;13.60;;
18042;SDS011;9146;48.074;11.968;2023-03-01T01:18:49;19.53;;;12.80;;
18042;SDS011;9146;48.074;11.968;2023-03-01T01:21:18;18.50;;;13.80;;
18042;SDS011;9146;48.074;11.968;2023-03-01T01:23:48;18.53;;;12.63;;
18042;SDS011;9146;48.074;11.968;2023-03-01T01:26:16;18.27;;;12.80;;
18042;SDS011;9146;48.074;11.968;2023-03-01T01:28:44;19.20;;;12.73;;
18042;SDS011;9146;48.074;11.968;2023-03-01T01:31:13;20.07;;;13.73;;
18042;SDS011;9146;48.074;11.968;2023-03-01T01:33:40;18.90;;;13.33;;
18042;SDS011;9146;48.074;11.968;2023-03-01T01:36:08;19.57;;;13.67;;
18042;SDS011;9146;48.074;11.968;2023-03-01T01:38:35;19.47;;;14.33;;
18042;SDS011;9146;48.074;11.968;2023-03-01T01:41:03;23.33;;;14.03;;
18042;SDS011;9146;48.074;11.968;2023-03-01T01:43:32;16.00;;;11.90;;
18042;SDS011;9146;48.074;11.968;2023-03-01T01:46:01;19.47;;;13.23;;
18042;SDS011;9146;48.074;11.968;2023-03-01T01:48:34;22.13;;;13.70;;
18042;SDS011;9146;48.074;11.968;2023-03-01T01:51:10;17.53;;;13.70;;
18042;SDS011;9146;48.074;11.968;2023-03-01T01:53:39;17.17;;;12.73;;
18042;SDS011;9146;48.074;11.968;2023-03-01T01:56:08;17.43;;;12.67;;
18042;SDS011;9146;48.074;11.968;2023-03-01T01:58:39;17.90;;;12.30;;
18042;SDS011;9146;48.074;11.968;2023-03-01T02:01:08;20.38;;;15.38;;
18042;SDS011;9146;48.074;11.968;2023-03-01T02:03:37;18.60;;;13.93;;
18042;SDS011;9146;48.074;11.968;2023-03-01T02:06:10;18.57;;;13.03;;
18042;SDS011;9146;48.074;11.968;2023-03-01T02:08:41;20.83;;;15.43;;
18042;SDS011;9146;48.074;11.968;2023-03-01T02:11:10;21.37;;;13.53;;
18042;SDS011;9146;48.074;11.968;2023-03-01T02:13:39;18.30;;;13.77;;
18042;SDS011;9146;48.074;11.968;2023-03-01T02:16:08;18.27;;;13.40;;
18042;SDS011;9146;48.074;11.968;2023-03-01T02:18:38;19.70;;;13.13;;
18042;SDS011;9146;48.074;11.968;2023-03-01T02:21:09;20.93;;;13.10;;
18042;SDS011;9146;48.074;11.968;2023-03-01T02:23:43;20.10;;;11.60;;
18042;SDS011;9146;48.074;11.968;2023-03-01T02:26:14;21.07;;;14.10;;
18042;SDS011;9146;48.074;11.968;2023-03-01T02:28:46;19.10;;;13.03;;
18042;SDS011;9146;48.074;11.968;2023-03-01T02:31:14;18.33;;;12.90;;
18042;SDS011;9146;48.074;11.968;2023-03-01T02:33:56;20.77;;;13.67;;
18042;SDS011;9146;48.074;11.968;2023-03-01T02:36:25;19.00;;;13.67;;
18042;SDS011;9146;48.074;11.968;2023-03-01T02:38:56;18.43;;;13.17;;
18042;SDS011;9146;48.074;11.968;2023-03-01T02:41:26;20.93;;;13.63;;
18042;SDS011;9146;48.074;11.968;2023-03-01T02:43:58;19.90;;;13.60;;
18042;SDS011;9146;48.074;11.968;2023-03-01T02:46:25;16.33;;;12.10;;
18042;SDS011;9146;48.074;11.968;2023-03-01T02:48:53;17.73;;;13.80;;
18042;SDS011;9146;48.074;11.968;2023-03-01T02:51:27;23.10;;;15.10;;
18042;SDS011;9146;48.074;11.968;2023-03-01T02:54:07;18.97;;;13.53;;
18042;SDS011;9146;48.074;11.968;2023-03-01T02:56:41;20.17;;;14.23;;
18042;SDS011;9146;48.074;11.968;2023-03-01T02:59:14;20.40;;;14.90;;
18042;SDS011;9146;48.074;11.968;2023-03-01T03:01:42;20.73;;;14.57;;
18042;SDS011;9146;48.074;11.968;2023-03-01T03:04:10;19.00;;;13.30;;
18042;SDS011;9146;48.074;11.968;2023-03-01T03:06:42;20.10;;;13.97;;
18042;SDS011;9146;48.074;11.968;2023-03-01T03:09:09;21.37;;;14.93;;
18042;SDS011;9146;48.074;11.968;2023-03-01T03:11:37;22.00;;;14.43;;
18042;SDS011;9146;48.074;11.968;2023-03-01T03:14:04;21.30;;;14.13;;
18042;SDS011;9146;48.074;11.968;2023-03-01T03:16:39;19.47;;;13.03;;
18042;SDS011;9146;48.074;11.968;2023-03-01T03:19:07;20.40;;;14.87;;
18042;SDS011;9146;48.074;11.968;2023-03-01T03:21:34;24.23;;;14.50;;
18042;SDS011;9146;48.074;11.968;2023-03-01T03:24:01;20.10;;;14.13;;
18042;SDS011;9146;48.074;11.968;2023-03-01T03:26:28;21.27;;;14.07;;
18042;SDS011;9146;48.074;11.968;2023-03-01T03:28:56;18.27;;;14.53;;
18042;SDS011;9146;48.074;11.968;2023-03-01T03:31:23;20.13;;;13.77;;
18042;SDS011;9146;48.074;11.968;2023-03-01T03:33:52;19.83;;;14.40;;
18042;SDS011;9146;48.074;11.968;2023-03-01T03:36:19;19.43;;;14.53;;
18042;SDS011;9146;48.074;11.968;2023-03-01T03:38:48;18.83;;;14.30;;
18042;SDS011;9146;48.074;11.968;2023-03-01T03:41:15;21.43;;;13.90;;
18042;SDS011;9146;48.074;11.968;2023-03-01T03:43:42;20.13;;;14.57;;
18042;SDS011;9146;48.074;11.968;2023-03-01T03:46:09;21.73;;;15.00;;
18042;SDS011;9146;48.074;11.968;2023-03-01T03:48:39;19.90;;;14.00;;
18042;SDS011;9146;48.074;11.968;2023-03-01T03:51:09;18.77;;;14.00;;
18042;SDS011;9146;48.074;11.968;2023-03-01T03:53:36;17.07;;;12.00;;
18042;SDS011;9146;48.074;11.968;2023-03-01T03:56:04;20.10;;;14.60;;
18042;SDS011;9146;48.074;11.968;2023-03-01T03:58:31;16.40;;;13.30;;
18042;SDS011;9146;48.074;11.968;2023-03-01T04:00:58;19.00;;;13.93;;
18042;SDS011;9146;48.074;11.968;2023-03-01T04:03:27;19.10;;;13.10;;
18042;SDS011;9146;48.074;11.968;2023-03-01T04:05:56;19.50;;;12.77;;
18042;SDS011;9146;48.074;11.968;2023-03-01T04:08:25;19.80;;;14.47;;
18042;SDS011;9146;48.074;11.968;2023-03-01T04:10:57;23.00;;;15.20;;
18042;SDS011;9146;48.074;11.968;2023-03-01T04:13:25;18.63;;;13.60;;
18042;SDS011;9146;48.074;11.968;2023-03-01T04:15:52;20.63;;;13.60;;
18042;SDS011;9146;48.074;11.968;2023-03-01T04:18:21;20.33;;;13.50;;
18042;SDS011;9146;48.074;11.968;2023-03-01T04:20:49;19.67;;;14.17;;
18042;SDS011;9146;48.074;11.968;2023-03-01T04:23:20;22.10;;;14.70;;
18042;SDS011;9146;48.074;11.968;2023-03-01T04:25:50;23.83;;;13.97;;
18042;SDS011;9146;48.074;11.968;2023-03-01T04:28:20;21.70;;;15.30;;
18042;SDS011;9146;48.074;11.968;2023-03-01T04:30:49;21.20;;;14.30;;
18042;SDS011;9146;48.074;11.968;2023-03-01T04:33:16;20.60;;;14.13;;
18042;SDS011;9146;48.074;11.968;2023-03-01T04:35:44;19.53;;;14.43;;
18042;SDS011;9146;48.074;11.968;2023-03-01T04:38:14;23.00;;;15.40;;
18042;SDS011;9146;48.074;11.968;2023-03-01T04:40:41;19.87;;;14.10;;
18042;SDS011;9146;48.074;11.968;2023-03-01T04:43:10;21.30;;;15.57;;
18042;SDS011;9146;48.074;11.968;2023-03-01T04:45:39;17.37;;;13.77;;
18042;SDS011;9146;48.074;11.968;2023-03-01T04:48:06;20.63;;;14.73;;
18042;SDS011;9146;48.074;11.968;2023-03-01T04:50:33;21.50;;;15.17;;
18042;SDS011;9146;48.074;11.968;2023-03-01T04:53:01;24.37;;;15.83;;
18042;SDS011;9146;48.074;11.968;2023-03-01T04:55:29;19.77;;;14.00;;
18042;SDS011;9146;48.074;11.968;2023-03-01T04:57:56;19.80;;;15.10;;
18042;SDS011;9146;48.074;11.968;2023-03-01T05:00:24;21.67;;;14.83;;
18042;SDS011;9146;48.074;11.968;2023-03-01T05:02:52;20.40;;;14.23;;
18042;SDS011;9146;48.074;11.968;2023-03-01T05:05:21;17.90;;;14.27;;
18042;SDS011;9146;48.074;11.968;2023-03-01T05:07:50;23.70;;;15.50;;
18042;SDS011;9146;48.074;11.968;2023-03-01T05:10:18;24.77;;;16.27;;
18042;SDS011;9146;48.074;11.968;2023-03-01T05:12:45;23.27;;;14.97;;
18042;SDS011;9146;48.074;11.968;2023-03-01T05:15:12;24.30;;;14.60;;
18042;SDS011;9146;48.074;11.968;2023-03-01T05:17:41;22.17;;;14.60;;
18042;SDS011;9146;48.074;11.968;2023-03-01T05:20:09;21.80;;;14.30;;
18042;SDS011;9146;48.074;11.968;2023-03-01T05:22:36;22.00;;;14.17;;
18042;SDS011;9146;48.074;11.968;2023-03-01T05:25:04;26.97;;;15.67;;
18042;SDS011;9146;48.074;11.968;2023-03-01T05:27:33;20.00;;;13.00;;
18042;SDS011;9146;48.074;11.968;2023-03-01T05:30:00;24.03;;;16.60;;
18042;SDS011;9146;48.074;11.968;2023-03-01T05:32:41;24.40;;;14.87;;
18042;SDS011;9146;48.074;11.968;2023-03-01T05:35:10;23.13;;;15.27;;
18042;SDS011;9146;48.074;11.968;2023-03-01T05:37:38;21.00;;;13.30;;
18042;SDS011;9146;48.074;11.968;2023-03-01T05:40:07;22.17;;;14.67;;
18042;SDS011;9146;48.074;11.968;2023-03-01T05:42:41;21.40;;;14.43;;
18042;SDS011;9146;48.074;11.968;2023-03-01T05:45:11;19.97;;;13.40;;
18042;SDS011;9146;48.074;11.968;2023-03-01T05:47:41;22.53;;;15.57;;
18042;SDS011;9146;48.074;11.968;2023-03-01T05:50:12;25.27;;;15.83;;
18042;SDS011;9146;48.074;11.968;2023-03-01T05:52:44;24.27;;;16.20;;
18042;SDS011;9146;48.074;11.968;2023-03-01T05:55:11;27.77;;;16.00;;
18042;SDS011;9146;48.074;11.968;2023-03-01T05:57:38;22.10;;;14.73;;
18042;SDS011;9146;48.074;11.968;2023-03-01T06:00:06;26.93;;;16.63;;
18042;SDS011;9146;48.074;11.968;2023-03-01T06:02:34;21.43;;;14.13;;
18042;SDS011;9146;48.074;11.968;2023-03-01T06:05:02;21.57;;;15.10;;
18042;SDS011;9146;48.074;11.968;2023-03-01T06:07:31;26.00;;;16.03;;
18042;SDS011;9146;48.074;11.968;2023-03-01T06:09:58;24.97;;;17.37;;
18042;SDS011;9146;48.074;11.968;2023-03-01T06:12:24;23.40;;;14.90;;
18042;SDS011;9146;48.074;11.968;2023-03-01T06:14:51;22.90;;;15.00;;
18042;SDS011;9146;48.074;11.968;2023-03-01T06:17:18;20.47;;;13.57;;
18042;SDS011;9146;48.074;11.968;2023-03-01T06:19:46;23.63;;;13.87;;
18042;SDS011;9146;48.074;11.968;2023-03-01T06:22:14;26.53;;;16.40;;
18042;SDS011;9146;48.074;11.968;2023-03-01T06:24:41;24.03;;;15.50;;
18042;SDS011;9146;48.074;11.968;2023-03-01T06:27:08;27.20;;;15.10;;
18042;SDS011;9146;48.074;11.968;2023-03-01T06:29:36;23.13;;;16.40;;
18042;SDS011;9146;48.074;11.968;2023-03-01T06:32:02;23.23;;;15.63;;
18042;SDS011;9146;48.074;11.968;2023-03-01T06:34:30;23.50;;;15.40;;
18042;SDS011;9146;48.074;11.968;2023-03-01T06:36:57;24.23;;;15.80;;
18042;SDS011;9146;48.074;11.968;2023-03-01T06:39:25;26.33;;;16.83;;
18042;SDS011;9146;48.074;11.968;2023-03-01T06:41:54;28.50;;;17.20;;
18042;SDS011;9146;48.074;11.968;2023-03-01T06:44:21;24.10;;;15.93;;
18042;SDS011;9146;48.074;11.968;2023-03-01T06:46:48;23.63;;;16.00;;
18042;SDS011;9146;48.074;11.968;2023-03-01T06:49:15;25.93;;;16.47;;
18042;SDS011;9146;48.074;11.968;2023-03-01T06:51:42;29.17;;;16.70;;
18042;SDS011;9146;48.074;11.968;2023-03-01T06:54:10;25.37;;;16.70;;
18042;SDS011;9146;48.074;11.968;2023-03-01T06:56:38;24.63;;;15.57;;
18042;SDS011;9146;48.074;11.968;2023-03-01T06:59:05;25.13;;;15.97;;
18042;SDS011;9146;48.074;11.968;2023-03-01T07:01:32;21.30;;;15.23;;
18042;SDS011;9146;48.074;11.968;2023-03-01T07:03:59;24.80;;;16.33;;
18042;SDS011;9146;48.074;11.968;2023-03-01T07:06:26;22.97;;;16.80;;
18042;SDS011;9146;48.074;11.968;2023-03-01T07:08:54;23.77;;;16.60;;
18042;SDS011;9146;48.074;11.968;2023-03-01T07:11:21;21.90;;;15.33;;
18042;SDS011;9146;48.074;11.968;2023-03-01T07:13:49;30.67;;;15.20;;
18042;SDS011;9146;48.074;11.968;2023-03-01T07:16:16;21.17;;;14.93;;
18042;SDS011;9146;48.074;11.968;2023-03-01T07:18:45;26.27;;;16.80;;
18042;SDS011;9146;48.074;11.968;2023-03-01T07:21:12;27.37;;;16.40;;
18042;SDS011;9146;48.074;11.968;2023-03-01T07:23:41;22.83;;;15.60;;
18042;SDS011;9146;48.074;11.968;2023-03-01T07:26:09;23.70;;;15.33;;
18042;SDS011;9146;48.074;11.968;2023-03-01T07:28:36;25.60;;;15.47;;
18042;SDS011;9146;48.074;11.968;2023-03-01T07:31:05;24.90;;;16.30;;
18042;SDS011;9146;48.074;11.968;2023-03-01T07:33:34;28.27;;;17.90;;
18042;SDS011;9146;48.074;11.968;2023-03-01T07:36:01;25.40;;;15.90;;
18042;SDS011;9146;48.074;11.968;2023-03-01T07:38:29;25.80;;;16.30;;
18042;SDS011;9146;48.074;11.968;2023-03-01T07:40:57;24.60;;;16.00;;
18042;SDS011;9146;48.074;11.968;2023-03-01T07:43:25;26.73;;;16.00;;
18042;SDS011;9146;48.074;11.968;2023-03-01T07:45:53;27.03;;;14.10;;
18042;SDS011;9146;48.074;11.968;2023-03-01T07:48:21;22.83;;;15.70;;
18042;SDS011;9146;48.074;11.968;2023-03-01T07:50:48;22.30;;;14.87;;
18042;SDS011;9146;48.074;11.968;2023-03-01T07:53:15;22.87;;;14.20;;
18042;SDS011;9146;48.074;11.968;2023-03-01T07:55:42;27.13;;;17.10;;
18042;SDS011;9146;48.074;11.968;2023-03-01T07:58:08;24.50;;;16.83;;
18042;SDS011;9146;48.074;11.968;2023-03-01T08:00:35;29.27;;;16.13;;
18042;SDS011;9146;48.074;11.968;2023-03-01T08:03:02;27.17;;;16.00;;
18042;SDS011;9146;48.074;11.968;2023-03-01T08:05:31;27.27;;;16.33;;
18042;SDS011;9146;48.074;11.968;2023-03-01T08:07:58;26.13;;;17.03;;
18042;SDS011;9146;48.074;11.968;2023-03-01T08:10:25;25.33;;;15.60;;
18042;SDS011;9146;48.074;11.968;2023-03-01T08:12:52;25.97;;;14.93;;
18042;SDS011;9146;48.074;11.968;2023-03-01T08:15:19;27.60;;;17.47;;
18042;SDS011;9146;48.074;11.968;2023-03-01T08:17:48;23.97;;;16.23;;
18042;SDS011;9146;48.074;11.968;2023-03-01T08:20:15;23.43;;;16.30;;
18042;SDS011;9146;48.074;11.968;2023-03-01T08:22:44;21.30;;;14.57;;
18042;SDS011;9146;48.074;11.968;2023-03-01T08:25:11;24.77;;;16.27;;
18042;SDS011;9146;48.074;11.968;2023-03-01T08:27:38;25.57;;;15.93;;
18042;SDS011;9146;48.074;11.968;2023-03-01T08:30:05;23.43;;;16.27;;
18042;SDS011;9146;48.074;11.968;2023-03-01T08:32:35;23.43;;;15.57;;
18042;SDS011;9146;48.074;11.968;2023-03-01T08:35:03;23.73;;;15.83;;
18042;SDS011;9146;48.074;11.968;2023-03-01T08:37:31;24.70;;;16.13;;
18042;SDS011;9146;48.074;11.968;2023-03-01T08:39:59;24.73;;;15.70;;
18042;SDS011;9146;48.074;11.968;2023-03-01T08:42:28;24.47;;;15.13;;
18042;SDS011;9146;48.074;11.968;2023-03-01T08:44:55;22.77;;;15.20;;
18042;SDS011;9146;48.074;11.968;2023-03-01T08:47:22;27.93;;;16.57;;
18042;SDS011;9146;48.074;11.968;2023-03-01T08:49:49;22.47;;;15.17;;
18042;SDS011;9146;48.074;11.968;2023-03-01T08:52:17;23.30;;;15.87;;
18042;SDS011;9146;48.074;11.968;2023-03-01T08:54:45;19.40;;;13.60;;
18042;SDS011;9146;48.074;11.968;2023-03-01T08:57:15;28.70;;;15.90;;
18042;SDS011;9146;48.074;11.968;2023-03-01T08:59:42;20.93;;;15.23;;
18042;SDS011;9146;48.074;11.968;2023-03-01T09:02:11;26.90;;;16.70;;
18042;SDS011;9146;48.074;11.968;2023-03-01T09:04:40;22.63;;;14.50;;
18042;SDS011;9146;48.074;11.968;2023-03-01T09:07:07;24.20;;;16.20;;
18042;SDS011;9146;48.074;11.968;2023-03-01T09:09:34;23.30;;;15.30;;
18042;SDS011;9146;48.074;11.968;2023-03-01T09:12:01;21.67;;;15.30;;
18042;SDS011;9146;48.074;11.968;2023-03-01T09:14:30;24.93;;;15.47;;
18042;SDS011;9146;48.074;11.968;2023-03-01T09:16:57;24.70;;;16.80;;
18042;SDS011;9146;48.074;11.968;2023-03-01T09:19:27;23.50;;;15.87;;
18042;SDS011;9146;48.074;11.968;2023-03-01T09:21:55;23.77;;;16.20;;
18042;SDS011;9146;48.074;11.968;2023-03-01T09:24:23;22.13;;;15.23;;
18042;SDS011;9146;48.074;11.968;2023-03-01T09:26:53;25.10;;;16.10;;
18042;SDS011;9146;48.074;11.968;2023-03-01T09:29:21;22.60;;;16.53;;
18042;SDS011;9146;48.074;11.968;2023-03-01T09:31:50;26.70;;;16.40;;
18042;SDS011;9146;48.074;11.968;2023-03-01T09:34:19;23.23;;;15.50;;
18042;SDS011;9146;48.074;11.968;2023-03-01T09:36:48;23.40;;;15.63;;
18042;SDS011;9146;48.074;11.968;2023-03-01T09:39:16;23.63;;;16.27;;
18042;SDS011;9146;48.074;11.968;2023-03-01T09:41:45;24.97;;;16.97;;
18042;SDS011;9146;48.074;11.968;2023-03-01T09:44:24;22.50;;;14.90;;
18042;SDS011;9146;48.074;11.968;2023-03-01T09:46:59;24.90;;;14.60;;
18042;SDS011;9146;48.074;11.968;2023-03-01T09:49:27;21.40;;;15.60;;
18042;SDS011;9146;48.074;11.968;2023-03-01T09:51:58;22.33;;;14.00;;
18042;SDS011;9146;48.074;11.968;2023-03-01T09:54:29;24.17;;;15.60;;
18042;SDS011;9146;48.074;11.968;2023-03-01T09:56:59;24.40;;;16.50;;
18042;SDS011;9146;48.074;11.968;2023-03-01T09:59:41;26.80;;;16.83;;
18042;SDS011;9146;48.074;11.968;2023-03-01T10:02:26;21.30;;;16.00;;
18042;SDS011;9146;48.074;11.968;2023-03-01T10:04:58;24.27;;;16.43;;
18042;SDS011;9146;48.074;11.968;2023-03-01T10:07:37;29.10;;;18.00;;
18042;SDS011;9146;48.074;11.968;2023-03-01T10:10:14;25.00;;;18.17;;
18042;SDS011;9146;48.074;11.968;2023-03-01T10:12:49;25.00;;;17.07;;
18042;SDS011;9146;48.074;11.968;2023-03-01T10:15:18;23.93;;;18.13;;
18042;SDS011;9146;48.074;11.968;2023-03-01T10:17:50;32.03;;;19.50;;
18042;SDS011;9146;48.074;11.968;2023-03-01T10:20:23;26.97;;;16.87;;
18042;SDS011;9146;48.074;11.968;2023-03-01T10:22:52;27.40;;;18.43;;
18042;SDS011;9146;48.074;11.968;2023-03-01T10:25:28;24.10;;;17.47;;
18042;SDS011;9146;48.074;11.968;2023-03-01T10:28:07;23.20;;;15.70;;
18042;SDS011;9146;48.074;11.968;2023-03-01T10:30:42;26.53;;;16.73;;
18042;SDS011;9146;48.074;11.968;2023-03-01T10:33:13;23.73;;;16.23;;
18042;SDS011;9146;48.074;11.968;2023-03-01T10:35:44;21.40;;;14.73;;
18042;SDS011;9146;48.074;11.968;2023-03-01T10:38:13;24.63;;;15.40;;
18042;SDS011;9146;48.074;11.968;2023-03-01T10:40:52;27.73;;;17.07;;
18042;SDS011;9146;48.074;11.968;2023-03-01T10:43:22;22.80;;;16.43;;
18042;SDS011;9146;48.074;11.968;2023-03-01T10:45:50;27.40;;;17.27;;
18042;SDS011;9146;48.074;11.968;2023-03-01T10:48:19;24.20;;;16.60;;
18042;SDS011;9146;48.074;11.968;2023-03-01T10:50:50;27.33;;;17.43;;
18042;SDS011;9146;48.074;11.968;2023-03-01T10:53:32;24.97;;;17.10;;
18042;SDS011;9146;48.074;11.968;2023-03-01T10:56:01;27.97;;;18.13;;
18042;SDS011;9146;48.074;11.968;2023-03-01T10:58:31;25.43;;;17.37;;
18042;SDS011;9146;48.074;11.968;2023-03-01T11:00:59;34.00;;;19.30;;
18042;SDS011;9146;48.074;11.968;2023-03-01T11:03:29;26.67;;;18.33;;
18042;SDS011;9146;48.074;11.968;2023-03-01T11:05:59;26.70;;;18.50;;
18042;SDS011;9146;48.074;11.968;2023-03-01T11:08:32;23.93;;;16.33;;
18042;SDS011;9146;48.074;11.968;2023-03-01T11:11:05;23.17;;;16.40;;
18042;SDS011;9146;48.074;11.968;2023-03-01T11:13:39;33.40;;;18.23;;
18042;SDS011;9146;48.074;11.968;2023-03-01T11:16:25;26.10;;;18.17;;
18042;SDS011;9146;48.074;11.968;2023-03-01T11:19:01;26.17;;;18.77;;
18042;SDS011;9146;48.074;11.968;2023-03-01T11:21:41;28.77;;;18.27;;
18042;SDS011;9146;48.074;11.968;2023-03-01T11:24:14;25.53;;;17.93;;
18042;SDS011;9146;48.074;11.968;2023-03-01T11:26:44;29.10;;;17.70;;
18042;SDS011;9146;48.074;11.968;2023-03-01T11:29:17;26.83;;;17.00;;
18042;SDS011;9146;48.074;11.968;2023-03-01T11:31:54;28.13;;;18.70;;
18042;SDS011;9146;48.074;11.968;2023-03-01T11:34:31;23.90;;;16.70;;
18042;SDS011;9146;48.074;11.968;2023-03-01T11:37:11;29.13;;;18.77;;
18042;SDS011;9146;48.074;11.968;2023-03-01T11:39:43;30.10;;;18.10;;
18042;SDS011;9146;48.074;11.968;2023-03-01T11:42:17;31.87;;;20.27;;
18042;SDS011;9146;48.074;11.968;2023-03-01T11:44:48;28.33;;;18.50;;
18042;SDS011;9146;48.074;11.968;2023-03-01T11:47:21;27.10;;;18.90;;
18042;SDS011;9146;48.074;11.968;2023-03-01T11:50:20;26.87;;;18.67;;
18042;SDS011;9146;48.074;11.968;2023-03-01T11:53:00;36.40;;;20.80;;
18042;SDS011;9146;48.074;11.968;2023-03-01T11:55:42;27.33;;;16.93;;
18042;SDS011;9146;48.074;11.968;2023-03-01T11:58:22;24.60;;;17.77;;
18042;SDS011;9146;48.074;11.968;2023-03-01T12:01:08;22.90;;;16.83;;
18042;SDS011;9146;48.074;11.968;2023-03-01T12:06:49;26.47;;;17.70;;
18042;SDS011;9146;48.074;11.968;2023-03-01T12:09:34;25.33;;;16.80;;
18042;SDS011;9146;48.074;11.968;2023-03-01T12:12:14;24.93;;;17.00;;
18042;SDS011;9146;48.074;11.968;2023-03-01T12:15:09;27.50;;;17.33;;
18042;SDS011;9146;48.074;11.968;2023-03-01T12:20:45;24.10;;;16.37;;
18042;SDS011;9146;48.074;11.968;2023-03-01T12:26:16;25.37;;;18.40;;
18042;SDS011;9146;48.074;11.968;2023-03-01T12:29:00;31.10;;;19.70;;
18042;SDS011;9146;48.074;11.968;2023-03-01T12:31:49;29.87;;;18.27;;
18042;SDS011;9146;48.074;11.968;2023-03-01T12:34:41;29.60;;;20.00;;
18042;SDS011;9146;48.074;11.968;2023-03-01T12:37:24;24.87;;;16.87;;
18042;SDS011;9146;48.074;11.968;2023-03-01T12:42:52;27.43;;;17.97;;
18042;SDS011;9146;48.074;11.968;2023-03-01T12:45:32;30.50;;;18.50;;
18042;SDS011;9146;48.074;11.968;2023-03-01T12:48:24;26.13;;;18.13;;
18042;SDS011;9146;48.074;11.968;2023-03-01T12:51:01;28.77;;;18.13;;
18042;SDS011;9146;48.074;11.968;2023-03-01T12:53:34;33.03;;;19.00;;
18042;SDS011;9146;48.074;11.968;2023-03-01T12:56:04;30.40;;;20.50;;
18042;SDS011;9146;48.074;11.968;2023-03-01T12:58:35;31.27;;;20.20;;
18042;SDS011;9146;48.074;11.968;2023-03-01T13:01:14;32.90;;;19.40;;
18042;SDS011;9146;48.074;11.968;2023-03-01T13:04:03;25.27;;;18.30;;
18042;SDS011;9146;48.074;11.968;2023-03-01T13:06:40;25.47;;;17.77;;
18042;SDS011;9146;48.074;11.968;2023-03-01T13:09:14;26.97;;;18.33;;
18042;SDS011;9146;48.074;11.968;2023-03-01T13:11:51;27.10;;;18.73;;
18042;SDS011;9146;48.074;11.968;2023-03-01T13:17:04;26.83;;;19.17;;
18042;SDS011;9146;48.074;11.968;2023-03-01T13:19:56;32.63;;;18.50;;
18042;SDS011;9146;48.074;11.968;2023-03-01T13:22:28;43.30;;;19.77;;
18042;SDS011;9146;48.074;11.968;2023-03-01T13:25:01;35.50;;;21.57;;
18042;SDS011;9146;48.074;11.968;2023-03-01T13:27:40;26.53;;;19.33;;
18042;SDS011;9146;48.074;11.968;2023-03-01T13:30:37;31.57;;;18.97;;
18042;SDS011;9146;48.074;11.968;2023-03-01T13:36:05;27.90;;;18.47;;
18042;SDS011;9146;48.074;11.968;2023-03-01T13:38:36;29.20;;;19.30;;
18042;SDS011;9146;48.074;11.968;2023-03-01T13:41:06;33.20;;;19.87;;
18042;SDS011;9146;48.074;11.968;2023-03-01T13:43:34;31.03;;;19.87;;
18042;SDS011;9146;48.074;11.968;2023-03-01T13:46:09;26.47;;;18.03;;
18042;SDS011;9146;48.074;11.968;2023-03-01T13:48:38;28.27;;;19.50;;
18042;SDS011;9146;48.074;11.968;2023-03-01T13:51:07;28.00;;;19.53;;
18042;SDS011;9146;48.074;11.968;2023-03-01T13:53:38;29.30;;;19.43;;
18042;SDS011;9146;48.074;11.968;2023-03-01T13:56:10;28.73;;;20.03;;
18042;SDS011;9146;48.074;11.968;2023-03-01T13:58:44;29.10;;;19.93;;
18042;SDS011;9146;48.074;11.968;2023-03-01T14:01:22;29.07;;;18.60;;
18042;SDS011;9146;48.074;11.968;2023-03-01T14:03:51;33.60;;;20.60;;
18042;SDS011;9146;48.074;11.968;2023-03-01T14:06:20;28.33;;;18.70;;
18042;SDS011;9146;48.074;11.968;2023-03-01T14:08:52;27.70;;;18.77;;
18042;SDS011;9146;48.074;11.968;2023-03-01T14:11:35;30.97;;;19.40;;
18042;SDS011;9146;48.074;11.968;2023-03-01T14:14:29;27.40;;;18.10;;
18042;SDS011;9146;48.074;11.968;2023-03-01T14:17:12;27.13;;;18.60;;
18042;SDS011;9146;48.074;11.968;2023-03-01T14:20:08;25.47;;;17.80;;
18042;SDS011;9146;48.074;11.968;2023-03-01T14:22:40;29.23;;;18.07;;
18042;SDS011;9146;48.074;11.968;2023-03-01T14:25:16;22.80;;;16.80;;
18042;SDS011;9146;48.074;11.968;2023-03-01T14:27:54;23.07;;;16.30;;
18042;SDS011;9146;48.074;11.968;2023-03-01T14:30:24;27.50;;;17.70;;
18042;SDS011;9146;48.074;11.968;2023-03-01T14:32:56;24.97;;;17.70;;
18042;SDS011;9146;48.074;11.968;2023-03-01T14:35:25;29.17;;;18.57;;
18042;SDS011;9146;48.074;11.968;2023-03-01T14:37:53;26.60;;;18.07;;
18042;SDS011;9146;48.074;11.968;2023-03-01T14:40:22;26.40;;;17.73;;
18042;SDS011;9146;48.074;11.968;2023-03-01T14:42:51;25.37;;;17.90;;
18042;SDS011;9146;48.074;11.968;2023-03-01T14:45:19;27.60;;;18.23;;
18042;SDS011;9146;48.074;11.968;2023-03-01T14:47:46;32.00;;;18.47;;
18042;SDS011;9146;48.074;11.968;2023-03-01T14:50:27;28.70;;;18.57;;
18042;SDS011;9146;48.074;11.968;2023-03-01T14:52:56;28.03;;;18.43;;
18042;SDS011;9146;48.074;11.968;2023-03-01T14:55:26;24.40;;;17.57;;
18042;SDS011;9146;48.074;11.968;2023-03-01T14:57:56;26.47;;;17.23;;